sensor_id;sensor_type;location;lat;lon;timestamp;temperature;humidity
16477;DHT22;8349;50.928;6.376;2023-04-25T00:00:20;6.60;99.90
16477;DHT22;8349;50.928;6.376;2023-04-25T00:02:47;6.50;99.90
16477;DHT22;8349;50.928;6.376;2023-04-25T00:05:14;6.50;99.90
16477;DHT22;8349;50.928;6.376;2023-04-25T00:07:41;6.40;99.90
16477;DHT22;8349;50.928;6.376;2023-04-25T00:10:10;6.40;99.90
16477;DHT22;8349;50.928;6.376;2023-04-25T00:12:37;6.40;99.90
16477;DHT22;8349;50.928;6.376;2023-04-25T00:15:04;6.40;99.90
16477;DHT22;8349;50.928;6.376;2023-04-25T00:17:31;6.40;99.90
16477;DHT22;8349;50.928;6.376;2023-04-25T00:19:58;6.40;99.90
16477;DHT22;8349;50.928;6.376;2023-04-25T00:22:25;6.40;99.90
16477;DHT22;8349;50.928;6.376;2023-04-25T00:24:52;6.40;99.90
16477;DHT22;8349;50.928;6.376;2023-04-25T00:27:23;6.40;99.90
16477;DHT22;8349;50.928;6.376;2023-04-25T00:29:49;6.50;99.90
16477;DHT22;8349;50.928;6.376;2023-04-25T00:32:16;6.50;99.90
16477;DHT22;8349;50.928;6.376;2023-04-25T00:34:44;6.40;99.90
16477;DHT22;8349;50.928;6.376;2023-04-25T00:37:10;6.40;99.90
16477;DHT22;8349;50.928;6.376;2023-04-25T00:39:38;6.40;99.90
16477;DHT22;8349;50.928;6.376;2023-04-25T00:42:05;6.40;99.90
16477;DHT22;8349;50.928;6.376;2023-04-25T00:44:33;6.40;99.90
16477;DHT22;8349;50.928;6.376;2023-04-25T00:47:02;6.40;99.90
16477;DHT22;8349;50.928;6.376;2023-04-25T00:49:28;6.40;99.90
16477;DHT22;8349;50.928;6.376;2023-04-25T00:51:56;6.30;99.90
16477;DHT22;8349;50.928;6.376;2023-04-25T00:54:23;6.30;99.90
16477;DHT22;8349;50.928;6.376;2023-04-25T00:56:49;6.20;99.90
16477;DHT22;8349;50.928;6.376;2023-04-25T00:59:17;6.20;99.90
16477;DHT22;8349;50.928;6.376;2023-04-25T01:01:46;6.20;99.90
16477;DHT22;8349;50.928;6.376;2023-04-25T01:04:13;6.10;99.90
16477;DHT22;8349;50.928;6.376;2023-04-25T01:06:40;6.10;99.90
16477;DHT22;8349;50.928;6.376;2023-04-25T01:09:06;6.10;99.90
16477;DHT22;8349;50.928;6.376;2023-04-25T01:11:34;6.10;99.90
16477;DHT22;8349;50.928;6.376;2023-04-25T01:14:01;6.10;99.90
16477;DHT22;8349;50.928;6.376;2023-04-25T01:16:28;6.10;99.90
16477;DHT22;8349;50.928;6.376;2023-04-25T01:18:56;6.10;99.90
16477;DHT22;8349;50.928;6.376;2023-04-25T01:21:25;6.10;99.90
16477;DHT22;8349;50.928;6.376;2023-04-25T01:23:55;6.10;99.90
16477;DHT22;8349;50.928;6.376;2023-04-25T01:26:22;6.10;99.90
16477;DHT22;8349;50.928;6.376;2023-04-25T01:28:49;6.10;99.90
16477;DHT22;8349;50.928;6.376;2023-04-25T01:31:16;6.10;99.90
16477;DHT22;8349;50.928;6.376;2023-04-25T01:33:43;6.10;99.90
16477;DHT22;8349;50.928;6.376;2023-04-25T01:36:10;6.10;99.90
16477;DHT22;8349;50.928;6.376;2023-04-25T01:38:39;6.00;99.90
16477;DHT22;8349;50.928;6.376;2023-04-25T01:41:06;6.00;99.90
16477;DHT22;8349;50.928;6.376;2023-04-25T01:43:33;6.10;99.90
16477;DHT22;8349;50.928;6.376;2023-04-25T01:46:01;6.10;99.90
16477;DHT22;8349;50.928;6.376;2023-04-25T01:48:27;6.10;99.90
16477;DHT22;8349;50.928;6.376;2023-04-25T01:50:54;6.10;99.90
16477;DHT22;8349;50.928;6.376;2023-04-25T01:53:21;6.10;99.90
16477;DHT22;8349;50.928;6.376;2023-04-25T01:55:49;6.10;99.90
16477;DHT22;8349;50.928;6.376;2023-04-25T01:58:19;6.10;99.90
16477;DHT22;8349;50.928;6.376;2023-04-25T02:01:01;6.10;99.90
16477;DHT22;8349;50.928;6.376;2023-04-25T02:03:35;6.10;99.90
16477;DHT22;8349;50.928;6.376;2023-04-25T02:06:05;6.10;99.90
16477;DHT22;8349;50.928;6.376;2023-04-25T02:08:36;6.10;99.90
16477;DHT22;8349;50.928;6.376;2023-04-25T02:11:04;6.10;99.90
16477;DHT22;8349;50.928;6.376;2023-04-25T02:13:39;6.10;99.90
16477;DHT22;8349;50.928;6.376;2023-04-25T02:16:15;6.10;99.90
16477;DHT22;8349;50.928;6.376;2023-04-25T02:18:43;6.10;99.90
16477;DHT22;8349;50.928;6.376;2023-04-25T02:21:10;6.10;99.90
16477;DHT22;8349;50.928;6.376;2023-04-25T02:23:37;6.10;99.90
16477;DHT22;8349;50.928;6.376;2023-04-25T02:26:05;6.00;99.90
16477;DHT22;8349;50.928;6.376;2023-04-25T02:28:32;6.10;99.90
16477;DHT22;8349;50.928;6.376;2023-04-25T02:31:03;6.10;99.90
16477;DHT22;8349;50.928;6.376;2023-04-25T02:33:30;6.10;99.90
16477;DHT22;8349;50.928;6.376;2023-04-25T02:35:57;6.10;99.90
16477;DHT22;8349;50.928;6.376;2023-04-25T02:38:24;6.10;99.90
16477;DHT22;8349;50.928;6.376;2023-04-25T02:40:51;6.10;99.90
16477;DHT22;8349;50.928;6.376;2023-04-25T02:43:19;6.10;99.90
16477;DHT22;8349;50.928;6.376;2023-04-25T02:45:47;6.10;99.90
16477;DHT22;8349;50.928;6.376;2023-04-25T02:48:14;6.10;99.90
16477;DHT22;8349;50.928;6.376;2023-04-25T02:50:41;6.10;99.90
16477;DHT22;8349;50.928;6.376;2023-04-25T02:53:07;6.10;99.90
16477;DHT22;8349;50.928;6.376;2023-04-25T02:55:42;6.10;99.90
16477;DHT22;8349;50.928;6.376;2023-04-25T02:58:09;6.10;99.90
16477;DHT22;8349;50.928;6.376;2023-04-25T03:00:44;6.10;99.90
16477;DHT22;8349;50.928;6.376;2023-04-25T03:03:11;6.10;99.90
16477;DHT22;8349;50.928;6.376;2023-04-25T03:05:38;6.10;99.90
16477;DHT22;8349;50.928;6.376;2023-04-25T03:08:05;6.10;99.90
16477;DHT22;8349;50.928;6.376;2023-04-25T03:10:33;6.10;99.90
16477;DHT22;8349;50.928;6.376;2023-04-25T03:13:04;6.10;99.90
16477;DHT22;8349;50.928;6.376;2023-04-25T03:15:31;6.00;99.90
16477;DHT22;8349;50.928;6.376;2023-04-25T03:17:59;6.00;99.90
16477;DHT22;8349;50.928;6.376;2023-04-25T03:20:26;6.00;99.90
16477;DHT22;8349;50.928;6.376;2023-04-25T03:22:53;6.00;99.90
16477;DHT22;8349;50.928;6.376;2023-04-25T03:25:20;6.00;99.90
16477;DHT22;8349;50.928;6.376;2023-04-25T03:27:46;6.00;99.90
16477;DHT22;8349;50.928;6.376;2023-04-25T03:30:13;6.00;99.90
16477;DHT22;8349;50.928;6.376;2023-04-25T03:32:43;6.00;99.90
16477;DHT22;8349;50.928;6.376;2023-04-25T03:35:15;5.90;99.90
16477;DHT22;8349;50.928;6.376;2023-04-25T03:37:42;5.90;99.90
16477;DHT22;8349;50.928;6.376;2023-04-25T03:40:12;5.90;99.90
16477;DHT22;8349;50.928;6.376;2023-04-25T03:43:04;5.90;99.90
16477;DHT22;8349;50.928;6.376;2023-04-25T03:45:32;5.90;99.90
16477;DHT22;8349;50.928;6.376;2023-04-25T03:47:59;5.90;99.90
16477;DHT22;8349;50.928;6.376;2023-04-25T03:50:29;5.90;99.90
16477;DHT22;8349;50.928;6.376;2023-04-25T03:52:56;5.80;99.90
16477;DHT22;8349;50.928;6.376;2023-04-25T03:55:26;5.80;99.90
16477;DHT22;8349;50.928;6.376;2023-04-25T03:57:53;5.80;99.90
16477;DHT22;8349;50.928;6.376;2023-04-25T04:00:20;5.80;99.90
16477;DHT22;8349;50.928;6.376;2023-04-25T04:02:50;5.80;99.90
16477;DHT22;8349;50.928;6.376;2023-04-25T04:05:18;5.80;99.90
16477;DHT22;8349;50.928;6.376;2023-04-25T04:07:53;5.80;99.90
16477;DHT22;8349;50.928;6.376;2023-04-25T04:10:21;5.80;99.90
16477;DHT22;8349;50.928;6.376;2023-04-25T04:12:48;5.80;99.90
16477;DHT22;8349;50.928;6.376;2023-04-25T04:15:14;5.80;99.90
16477;DHT22;8349;50.928;6.376;2023-04-25T04:17:43;5.80;99.90
16477;DHT22;8349;50.928;6.376;2023-04-25T04:20:12;5.90;99.90
16477;DHT22;8349;50.928;6.376;2023-04-25T04:22:40;5.90;99.90
16477;DHT22;8349;50.928;6.376;2023-04-25T04:25:11;5.90;99.90
16477;DHT22;8349;50.928;6.376;2023-04-25T04:28:01;5.90;99.90
16477;DHT22;8349;50.928;6.376;2023-04-25T04:30:37;5.90;99.90
16477;DHT22;8349;50.928;6.376;2023-04-25T04:33:06;5.90;99.90
16477;DHT22;8349;50.928;6.376;2023-04-25T04:35:34;5.90;99.90
16477;DHT22;8349;50.928;6.376;2023-04-25T04:38:01;5.90;99.90
16477;DHT22;8349;50.928;6.376;2023-04-25T04:40:33;5.90;99.90
16477;DHT22;8349;50.928;6.376;2023-04-25T04:43:18;6.00;99.90
16477;DHT22;8349;50.928;6.376;2023-04-25T04:45:53;6.00;99.90
16477;DHT22;8349;50.928;6.376;2023-04-25T04:48:52;6.00;99.90
16477;DHT22;8349;50.928;6.376;2023-04-25T04:51:42;6.00;99.90
16477;DHT22;8349;50.928;6.376;2023-04-25T04:54:31;6.00;99.90
16477;DHT22;8349;50.928;6.376;2023-04-25T04:57:19;6.00;99.90
16477;DHT22;8349;50.928;6.376;2023-04-25T04:59:56;6.00;99.90
16477;DHT22;8349;50.928;6.376;2023-04-25T05:02:45;6.00;99.90
16477;DHT22;8349;50.928;6.376;2023-04-25T05:05:31;6.10;99.90
16477;DHT22;8349;50.928;6.376;2023-04-25T05:08:18;6.10;99.90
16477;DHT22;8349;50.928;6.376;2023-04-25T05:10:54;6.10;99.90
16477;DHT22;8349;50.928;6.376;2023-04-25T05:13:41;6.10;99.90
16477;DHT22;8349;50.928;6.376;2023-04-25T05:16:17;6.10;99.90
16477;DHT22;8349;50.928;6.376;2023-04-25T05:18:54;6.20;99.90
16477;DHT22;8349;50.928;6.376;2023-04-25T05:21:41;6.20;99.90
16477;DHT22;8349;50.928;6.376;2023-04-25T05:24:26;6.30;99.90
16477;DHT22;8349;50.928;6.376;2023-04-25T05:27:13;6.40;99.90
16477;DHT22;8349;50.928;6.376;2023-04-25T05:30:05;6.40;99.90
16477;DHT22;8349;50.928;6.376;2023-04-25T05:32:41;6.40;99.90
16477;DHT22;8349;50.928;6.376;2023-04-25T05:35:08;6.40;99.90
16477;DHT22;8349;50.928;6.376;2023-04-25T05:37:41;6.50;99.90
16477;DHT22;8349;50.928;6.376;2023-04-25T05:40:11;6.50;99.90
16477;DHT22;8349;50.928;6.376;2023-04-25T05:43:04;6.50;99.90
16477;DHT22;8349;50.928;6.376;2023-04-25T05:45:56;6.60;99.90
16477;DHT22;8349;50.928;6.376;2023-04-25T05:48:52;6.60;99.90
16477;DHT22;8349;50.928;6.376;2023-04-25T05:51:51;6.60;99.90
16477;DHT22;8349;50.928;6.376;2023-04-25T05:54:36;6.60;99.90
16477;DHT22;8349;50.928;6.376;2023-04-25T05:57:04;6.60;99.90
16477;DHT22;8349;50.928;6.376;2023-04-25T05:59:31;6.70;99.90
16477;DHT22;8349;50.928;6.376;2023-04-25T06:02:00;6.70;99.90
16477;DHT22;8349;50.928;6.376;2023-04-25T06:04:28;6.80;99.90
16477;DHT22;8349;50.928;6.376;2023-04-25T06:06:55;6.80;99.90
16477;DHT22;8349;50.928;6.376;2023-04-25T06:09:22;6.90;99.90
16477;DHT22;8349;50.928;6.376;2023-04-25T06:11:49;6.90;99.90
16477;DHT22;8349;50.928;6.376;2023-04-25T06:14:16;6.90;99.90
16477;DHT22;8349;50.928;6.376;2023-04-25T06:16:47;6.90;99.90
16477;DHT22;8349;50.928;6.376;2023-04-25T06:19:15;6.90;99.90
16477;DHT22;8349;50.928;6.376;2023-04-25T06:21:42;6.90;99.90
16477;DHT22;8349;50.928;6.376;2023-04-25T06:24:09;7.00;99.90
16477;DHT22;8349;50.928;6.376;2023-04-25T06:26:36;7.10;99.90
16477;DHT22;8349;50.928;6.376;2023-04-25T06:29:04;7.10;99.90
16477;DHT22;8349;50.928;6.376;2023-04-25T06:31:31;7.10;99.90
16477;DHT22;8349;50.928;6.376;2023-04-25T06:33:59;7.20;99.90
16477;DHT22;8349;50.928;6.376;2023-04-25T06:36:29;7.20;99.90
16477;DHT22;8349;50.928;6.376;2023-04-25T06:39:02;7.30;99.90
16477;DHT22;8349;50.928;6.376;2023-04-25T06:41:30;7.30;99.90
16477;DHT22;8349;50.928;6.376;2023-04-25T06:44:00;7.30;99.90
16477;DHT22;8349;50.928;6.376;2023-04-25T06:46:47;7.40;99.90
16477;DHT22;8349;50.928;6.376;2023-04-25T06:49:14;7.60;99.90
16477;DHT22;8349;50.928;6.376;2023-04-25T06:51:43;7.60;99.90
16477;DHT22;8349;50.928;6.376;2023-04-25T06:54:10;7.80;99.90
16477;DHT22;8349;50.928;6.376;2023-04-25T06:56:44;7.70;99.90
16477;DHT22;8349;50.928;6.376;2023-04-25T06:59:13;7.80;99.90
16477;DHT22;8349;50.928;6.376;2023-04-25T07:01:41;7.80;99.90
16477;DHT22;8349;50.928;6.376;2023-04-25T07:04:14;7.80;99.90
16477;DHT22;8349;50.928;6.376;2023-04-25T07:06:48;7.80;99.90
16477;DHT22;8349;50.928;6.376;2023-04-25T07:09:20;7.90;99.90
16477;DHT22;8349;50.928;6.376;2023-04-25T07:11:59;7.90;99.90
16477;DHT22;8349;50.928;6.376;2023-04-25T07:14:26;7.80;99.90
16477;DHT22;8349;50.928;6.376;2023-04-25T07:16:54;7.90;99.90
16477;DHT22;8349;50.928;6.376;2023-04-25T07:19:24;8.00;99.90
16477;DHT22;8349;50.928;6.376;2023-04-25T07:21:55;8.00;99.90
16477;DHT22;8349;50.928;6.376;2023-04-25T07:24:22;8.10;99.90
16477;DHT22;8349;50.928;6.376;2023-04-25T07:26:50;8.20;99.90
16477;DHT22;8349;50.928;6.376;2023-04-25T07:29:40;8.20;99.90
16477;DHT22;8349;50.928;6.376;2023-04-25T07:32:07;8.30;99.90
16477;DHT22;8349;50.928;6.376;2023-04-25T07:34:34;8.20;99.90
16477;DHT22;8349;50.928;6.376;2023-04-25T07:37:04;8.30;99.90
16477;DHT22;8349;50.928;6.376;2023-04-25T07:39:38;8.40;99.90
16477;DHT22;8349;50.928;6.376;2023-04-25T07:42:05;8.60;99.90
16477;DHT22;8349;50.928;6.376;2023-04-25T07:44:34;8.60;99.90
16477;DHT22;8349;50.928;6.376;2023-04-25T07:47:04;8.70;99.90
16477;DHT22;8349;50.928;6.376;2023-04-25T07:49:32;8.80;99.90
16477;DHT22;8349;50.928;6.376;2023-04-25T07:51:59;8.80;99.90
16477;DHT22;8349;50.928;6.376;2023-04-25T07:54:27;8.80;99.90
16477;DHT22;8349;50.928;6.376;2023-04-25T07:57:00;8.90;99.90
16477;DHT22;8349;50.928;6.376;2023-04-25T07:59:29;9.00;99.90
16477;DHT22;8349;50.928;6.376;2023-04-25T08:01:59;9.00;99.90
16477;DHT22;8349;50.928;6.376;2023-04-25T08:04:26;9.10;99.90
16477;DHT22;8349;50.928;6.376;2023-04-25T08:07:01;9.10;99.90
16477;DHT22;8349;50.928;6.376;2023-04-25T08:09:35;9.20;99.90
16477;DHT22;8349;50.928;6.376;2023-04-25T08:12:05;9.40;99.90
16477;DHT22;8349;50.928;6.376;2023-04-25T08:14:32;9.50;99.90
16477;DHT22;8349;50.928;6.376;2023-04-25T08:17:03;9.70;99.90
16477;DHT22;8349;50.928;6.376;2023-04-25T08:19:32;9.60;99.90
16477;DHT22;8349;50.928;6.376;2023-04-25T08:21:59;9.60;99.90
16477;DHT22;8349;50.928;6.376;2023-04-25T08:24:36;9.50;99.90
16477;DHT22;8349;50.928;6.376;2023-04-25T08:27:02;9.60;99.90
16477;DHT22;8349;50.928;6.376;2023-04-25T08:29:30;9.70;99.90
16477;DHT22;8349;50.928;6.376;2023-04-25T08:31:57;9.60;99.90
16477;DHT22;8349;50.928;6.376;2023-04-25T08:34:24;9.60;99.90
16477;DHT22;8349;50.928;6.376;2023-04-25T08:36:52;9.70;99.90
16477;DHT22;8349;50.928;6.376;2023-04-25T08:39:45;9.60;99.90
16477;DHT22;8349;50.928;6.376;2023-04-25T08:42:34;9.70;99.90
16477;DHT22;8349;50.928;6.376;2023-04-25T08:45:02;9.80;99.90
16477;DHT22;8349;50.928;6.376;2023-04-25T08:47:34;9.90;99.90
16477;DHT22;8349;50.928;6.376;2023-04-25T08:50:02;10.00;99.90
16477;DHT22;8349;50.928;6.376;2023-04-25T08:52:30;10.00;99.90
16477;DHT22;8349;50.928;6.376;2023-04-25T08:54:59;10.00;99.90
16477;DHT22;8349;50.928;6.376;2023-04-25T08:57:28;10.30;99.90
16477;DHT22;8349;50.928;6.376;2023-04-25T08:59:56;10.40;99.90
16477;DHT22;8349;50.928;6.376;2023-04-25T09:02:24;10.60;99.90
16477;DHT22;8349;50.928;6.376;2023-04-25T09:04:51;10.70;99.90
16477;DHT22;8349;50.928;6.376;2023-04-25T09:07:20;10.60;99.90
16477;DHT22;8349;50.928;6.376;2023-04-25T09:09:47;10.60;99.90
16477;DHT22;8349;50.928;6.376;2023-04-25T09:12:19;10.60;99.90
16477;DHT22;8349;50.928;6.376;2023-04-25T09:15:00;10.60;99.90
16477;DHT22;8349;50.928;6.376;2023-04-25T09:17:41;10.40;99.90
16477;DHT22;8349;50.928;6.376;2023-04-25T09:20:11;10.40;99.90
16477;DHT22;8349;50.928;6.376;2023-04-25T09:22:39;10.40;99.90
16477;DHT22;8349;50.928;6.376;2023-04-25T09:25:09;10.40;99.90
16477;DHT22;8349;50.928;6.376;2023-04-25T09:27:43;10.30;99.90
16477;DHT22;8349;50.928;6.376;2023-04-25T09:30:28;10.20;99.90
16477;DHT22;8349;50.928;6.376;2023-04-25T09:33:06;10.30;99.90
16477;DHT22;8349;50.928;6.376;2023-04-25T09:35:37;10.40;99.90
16477;DHT22;8349;50.928;6.376;2023-04-25T09:38:09;10.50;99.90
16477;DHT22;8349;50.928;6.376;2023-04-25T09:41:07;10.50;99.90
16477;DHT22;8349;50.928;6.376;2023-04-25T09:43:42;10.60;99.90
16477;DHT22;8349;50.928;6.376;2023-04-25T09:46:11;10.80;99.90
16477;DHT22;8349;50.928;6.376;2023-04-25T09:48:48;10.80;99.90
16477;DHT22;8349;50.928;6.376;2023-04-25T09:51:17;11.00;99.90
16477;DHT22;8349;50.928;6.376;2023-04-25T09:53:46;10.90;99.90
16477;DHT22;8349;50.928;6.376;2023-04-25T09:56:23;10.70;99.90
16477;DHT22;8349;50.928;6.376;2023-04-25T09:58:53;10.50;99.90
16477;DHT22;8349;50.928;6.376;2023-04-25T10:01:20;10.50;99.90
16477;DHT22;8349;50.928;6.376;2023-04-25T10:04:10;10.50;99.90
16477;DHT22;8349;50.928;6.376;2023-04-25T10:06:51;11.00;99.90
16477;DHT22;8349;50.928;6.376;2023-04-25T10:09:20;11.40;99.90
16477;DHT22;8349;50.928;6.376;2023-04-25T10:11:48;11.50;99.90
16477;DHT22;8349;50.928;6.376;2023-04-25T10:14:17;11.60;99.90
16477;DHT22;8349;50.928;6.376;2023-04-25T10:16:45;11.80;99.90
16477;DHT22;8349;50.928;6.376;2023-04-25T10:19:12;11.90;99.90
16477;DHT22;8349;50.928;6.376;2023-04-25T10:21:40;11.70;99.90
16477;DHT22;8349;50.928;6.376;2023-04-25T10:24:10;11.90;99.90
16477;DHT22;8349;50.928;6.376;2023-04-25T10:26:37;12.10;99.90
16477;DHT22;8349;50.928;6.376;2023-04-25T10:29:05;11.70;99.90
16477;DHT22;8349;50.928;6.376;2023-04-25T10:31:33;11.70;99.90
16477;DHT22;8349;50.928;6.376;2023-04-25T10:34:10;11.70;99.90
16477;DHT22;8349;50.928;6.376;2023-04-25T10:36:37;11.90;99.90
16477;DHT22;8349;50.928;6.376;2023-04-25T10:39:05;11.90;99.90
16477;DHT22;8349;50.928;6.376;2023-04-25T10:41:44;11.90;99.90
16477;DHT22;8349;50.928;6.376;2023-04-25T10:44:11;12.00;99.90
16477;DHT22;8349;50.928;6.376;2023-04-25T10:46:40;12.10;99.90
16477;DHT22;8349;50.928;6.376;2023-04-25T10:49:06;12.20;99.90
16477;DHT22;8349;50.928;6.376;2023-04-25T10:51:35;12.30;99.90
16477;DHT22;8349;50.928;6.376;2023-04-25T10:54:03;12.70;99.90
16477;DHT22;8349;50.928;6.376;2023-04-25T10:56:30;12.30;99.90
16477;DHT22;8349;50.928;6.376;2023-04-25T10:59:04;12.00;99.90
16477;DHT22;8349;50.928;6.376;2023-04-25T11:01:35;11.70;99.90
16477;DHT22;8349;50.928;6.376;2023-04-25T11:04:03;11.50;99.90
16477;DHT22;8349;50.928;6.376;2023-04-25T11:06:32;11.30;99.90
16477;DHT22;8349;50.928;6.376;2023-04-25T11:09:02;11.40;99.90
16477;DHT22;8349;50.928;6.376;2023-04-25T11:11:29;11.30;99.90
16477;DHT22;8349;50.928;6.376;2023-04-25T11:13:56;11.40;99.90
16477;DHT22;8349;50.928;6.376;2023-04-25T11:16:23;11.40;99.90
16477;DHT22;8349;50.928;6.376;2023-04-25T11:18:50;11.50;99.90
16477;DHT22;8349;50.928;6.376;2023-04-25T11:21:18;11.40;99.90
16477;DHT22;8349;50.928;6.376;2023-04-25T11:23:45;11.40;99.90
16477;DHT22;8349;50.928;6.376;2023-04-25T11:26:12;11.90;99.90
16477;DHT22;8349;50.928;6.376;2023-04-25T11:28:39;12.50;99.90
16477;DHT22;8349;50.928;6.376;2023-04-25T11:31:06;13.60;99.90
16477;DHT22;8349;50.928;6.376;2023-04-25T11:33:35;16.10;99.90
16477;DHT22;8349;50.928;6.376;2023-04-25T11:36:02;16.70;99.90
16477;DHT22;8349;50.928;6.376;2023-04-25T11:45:52;17.50;99.90
16477;DHT22;8349;50.928;6.376;2023-04-25T11:48:19;15.70;99.90
16477;DHT22;8349;50.928;6.376;2023-04-25T11:50:45;15.70;99.90
16477;DHT22;8349;50.928;6.376;2023-04-25T11:53:12;16.80;99.90
16477;DHT22;8349;50.928;6.376;2023-04-25T11:55:39;16.70;99.90
16477;DHT22;8349;50.928;6.376;2023-04-25T11:58:06;16.50;99.90
16477;DHT22;8349;50.928;6.376;2023-04-25T12:00:34;17.40;99.90
16477;DHT22;8349;50.928;6.376;2023-04-25T12:03:02;18.30;99.90
16477;DHT22;8349;50.928;6.376;2023-04-25T12:10:25;15.80;99.90
16477;DHT22;8349;50.928;6.376;2023-04-25T12:12:52;15.00;99.90
16477;DHT22;8349;50.928;6.376;2023-04-25T12:15:23;15.00;99.90
16477;DHT22;8349;50.928;6.376;2023-04-25T12:17:51;15.70;99.90
16477;DHT22;8349;50.928;6.376;2023-04-25T12:20:20;17.80;99.90
16477;DHT22;8349;50.928;6.376;2023-04-25T12:22:49;17.90;99.90
16477;DHT22;8349;50.928;6.376;2023-04-25T12:28:08;14.90;99.90
16477;DHT22;8349;50.928;6.376;2023-04-25T12:33:17;13.00;99.90
16477;DHT22;8349;50.928;6.376;2023-04-25T12:35:45;12.50;99.90
16477;DHT22;8349;50.928;6.376;2023-04-25T12:38:14;12.30;99.90
16477;DHT22;8349;50.928;6.376;2023-04-25T12:40:46;12.10;99.90
16477;DHT22;8349;50.928;6.376;2023-04-25T12:43:13;12.00;99.90
16477;DHT22;8349;50.928;6.376;2023-04-25T12:45:40;12.10;99.90
16477;DHT22;8349;50.928;6.376;2023-04-25T12:48:07;12.10;99.90
16477;DHT22;8349;50.928;6.376;2023-04-25T12:50:33;12.20;99.90
16477;DHT22;8349;50.928;6.376;2023-04-25T12:53:02;12.40;99.90
16477;DHT22;8349;50.928;6.376;2023-04-25T12:55:29;12.60;99.90
16477;DHT22;8349;50.928;6.376;2023-04-25T12:57:56;12.70;99.90
16477;DHT22;8349;50.928;6.376;2023-04-25T13:00:23;13.00;99.90
16477;DHT22;8349;50.928;6.376;2023-04-25T13:02:50;13.70;99.90
16477;DHT22;8349;50.928;6.376;2023-04-25T13:05:16;14.90;99.90
16477;DHT22;8349;50.928;6.376;2023-04-25T13:07:43;16.00;99.90
16477;DHT22;8349;50.928;6.376;2023-04-25T13:10:11;16.20;99.90
16477;DHT22;8349;50.928;6.376;2023-04-25T13:12:54;15.60;99.90
16477;DHT22;8349;50.928;6.376;2023-04-25T13:15:21;15.10;99.90
16477;DHT22;8349;50.928;6.376;2023-04-25T13:17:48;15.40;99.90
16477;DHT22;8349;50.928;6.376;2023-04-25T13:20:15;15.50;99.90
16477;DHT22;8349;50.928;6.376;2023-04-25T13:22:42;15.40;99.90
16477;DHT22;8349;50.928;6.376;2023-04-25T13:25:11;16.00;99.90
16477;DHT22;8349;50.928;6.376;2023-04-25T13:27:37;16.50;99.90
16477;DHT22;8349;50.928;6.376;2023-04-25T13:30:07;17.10;99.90
16477;DHT22;8349;50.928;6.376;2023-04-25T13:32:34;17.00;99.90
16477;DHT22;8349;50.928;6.376;2023-04-25T13:42:25;15.00;99.90
16477;DHT22;8349;50.928;6.376;2023-04-25T13:44:51;14.00;99.90
16477;DHT22;8349;50.928;6.376;2023-04-25T13:47:20;13.40;99.90
16477;DHT22;8349;50.928;6.376;2023-04-25T13:52:14;12.30;99.90
16477;DHT22;8349;50.928;6.376;2023-04-25T13:54:40;11.80;99.90
16477;DHT22;8349;50.928;6.376;2023-04-25T13:57:07;11.40;99.90
16477;DHT22;8349;50.928;6.376;2023-04-25T13:59:35;11.40;99.90
16477;DHT22;8349;50.928;6.376;2023-04-25T14:02:02;11.30;99.90
16477;DHT22;8349;50.928;6.376;2023-04-25T14:04:30;11.30;99.90
16477;DHT22;8349;50.928;6.376;2023-04-25T14:06:58;11.40;99.90
16477;DHT22;8349;50.928;6.376;2023-04-25T14:09:25;11.70;99.90
16477;DHT22;8349;50.928;6.376;2023-04-25T14:11:52;12.00;99.90
16477;DHT22;8349;50.928;6.376;2023-04-25T14:14:19;12.30;99.90
16477;DHT22;8349;50.928;6.376;2023-04-25T14:19:14;13.50;99.90
16477;DHT22;8349;50.928;6.376;2023-04-25T14:24:09;16.80;99.90
16477;DHT22;8349;50.928;6.376;2023-04-25T14:26:37;17.60;99.90
16477;DHT22;8349;50.928;6.376;2023-04-25T14:29:04;17.90;99.90
16477;DHT22;8349;50.928;6.376;2023-04-25T14:31:32;18.30;99.90
16477;DHT22;8349;50.928;6.376;2023-04-25T14:33:59;19.00;99.90
16477;DHT22;8349;50.928;6.376;2023-04-25T14:36:26;19.30;99.90
16477;DHT22;8349;50.928;6.376;2023-04-25T14:38:52;19.30;99.90
16477;DHT22;8349;50.928;6.376;2023-04-25T14:41:21;19.60;99.90
16477;DHT22;8349;50.928;6.376;2023-04-25T14:43:48;20.20;99.90
16477;DHT22;8349;50.928;6.376;2023-04-25T14:46:15;20.60;99.90
16477;DHT22;8349;50.928;6.376;2023-04-25T14:48:42;20.60;99.90
16477;DHT22;8349;50.928;6.376;2023-04-25T14:51:08;20.00;99.90
16477;DHT22;8349;50.928;6.376;2023-04-25T14:53:35;19.40;99.90
16477;DHT22;8349;50.928;6.376;2023-04-25T14:56:02;19.40;99.90
16477;DHT22;8349;50.928;6.376;2023-04-25T14:58:30;19.20;99.90
16477;DHT22;8349;50.928;6.376;2023-04-25T15:00:57;19.40;99.90
16477;DHT22;8349;50.928;6.376;2023-04-25T15:27:58;15.90;99.90
16477;DHT22;8349;50.928;6.376;2023-04-25T15:30:25;14.90;99.90
16477;DHT22;8349;50.928;6.376;2023-04-25T15:32:52;14.10;99.90
16477;DHT22;8349;50.928;6.376;2023-04-25T22:47:44;4.40;99.90
16477;DHT22;8349;50.928;6.376;2023-04-25T22:50:11;4.40;99.90
16477;DHT22;8349;50.928;6.376;2023-04-25T22:52:40;4.40;99.90
16477;DHT22;8349;50.928;6.376;2023-04-25T22:55:07;4.30;99.90
16477;DHT22;8349;50.928;6.376;2023-04-25T22:57:35;4.30;99.90
16477;DHT22;8349;50.928;6.376;2023-04-25T23:00:02;4.20;99.90
16477;DHT22;8349;50.928;6.376;2023-04-25T23:02:34;4.20;99.90
16477;DHT22;8349;50.928;6.376;2023-04-25T23:05:03;4.10;99.90
16477;DHT22;8349;50.928;6.376;2023-04-25T23:07:31;4.10;99.90
16477;DHT22;8349;50.928;6.376;2023-04-25T23:09:58;4.10;99.90
16477;DHT22;8349;50.928;6.376;2023-04-25T23:12:25;4.10;99.90
16477;DHT22;8349;50.928;6.376;2023-04-25T23:14:51;4.00;99.90
16477;DHT22;8349;50.928;6.376;2023-04-25T23:17:18;4.00;99.90
16477;DHT22;8349;50.928;6.376;2023-04-25T23:19:45;4.00;99.90
16477;DHT22;8349;50.928;6.376;2023-04-25T23:22:14;4.00;99.90
16477;DHT22;8349;50.928;6.376;2023-04-25T23:24:40;3.90;99.90
16477;DHT22;8349;50.928;6.376;2023-04-25T23:27:08;3.80;99.90
16477;DHT22;8349;50.928;6.376;2023-04-25T23:29:34;3.80;99.90
16477;DHT22;8349;50.928;6.376;2023-04-25T23:32:01;3.80;99.90
16477;DHT22;8349;50.928;6.376;2023-04-25T23:34:28;3.70;99.90
16477;DHT22;8349;50.928;6.376;2023-04-25T23:36:55;3.70;99.90
16477;DHT22;8349;50.928;6.376;2023-04-25T23:39:24;3.70;99.90
16477;DHT22;8349;50.928;6.376;2023-04-25T23:41:52;3.70;99.90
16477;DHT22;8349;50.928;6.376;2023-04-25T23:44:18;3.70;99.90
16477;DHT22;8349;50.928;6.376;2023-04-25T23:46:45;3.70;99.90
16477;DHT22;8349;50.928;6.376;2023-04-25T23:49:12;3.70;99.90
16477;DHT22;8349;50.928;6.376;2023-04-25T23:51:39;3.70;99.90
16477;DHT22;8349;50.928;6.376;2023-04-25T23:54:05;3.60;99.90
16477;DHT22;8349;50.928;6.376;2023-04-25T23:56:34;3.60;99.90
16477;DHT22;8349;50.928;6.376;2023-04-25T23:59:01;3.50;99.90
